Time;durP1;ratioP1;P1;durP2;ratioP2;P2;SDS_P1;SDS_P2;PMS_P1;PMS_P2;Temp;Humidity;BMP_temperature;BMP_pressure;BME280_temperature;BME280_humidity;BME280_pressure;Samples;Min_cycle;Max_cycle;Signal;HPM_P1;HPM_P2
2022/04/08 00:01:10;;;;;;;6.93;1.40;;;11.30;52.00;;;;;;7353786;19;21051;-80
2022/04/08 00:03:40;;;;;;;3.37;1.20;;;11.30;51.80;;;;;;7351281;19;20403;-82
2022/04/08 00:06:09;;;;;;;6.70;1.47;;;11.30;51.30;;;;;;7370915;19;20388;-81
2022/04/08 00:08:42;;;;;;;6.47;1.30;;;11.20;51.40;;;;;;7362984;19;20400;-79
2022/04/08 00:11:16;;;;;;;3.20;1.47;;;11.20;51.70;;;;;;7351677;19;20421;-80
2022/04/08 00:13:51;;;;;;;4.93;1.20;;;11.20;51.70;;;;;;7352711;19;20418;-80
2022/04/08 00:16:21;;;;;;;4.23;1.10;;;11.20;51.50;;;;;;7354714;19;20388;-79
2022/04/08 00:18:51;;;;;;;2.97;1.10;;;11.30;51.40;;;;;;7350548;19;20484;-79
2022/04/08 00:21:24;;;;;;;5.80;1.40;;;11.30;51.10;;;;;;7340782;19;20934;-80
2022/04/08 00:23:56;;;;;;;2.50;0.90;;;11.30;50.80;;;;;;7357322;19;20924;-80
2022/04/08 00:26:27;;;;;;;3.93;1.20;;;11.30;51.00;;;;;;7352106;19;20404;-81
2022/04/08 00:29:01;;;;;;;4.87;1.33;;;11.40;50.60;;;;;;7357024;19;20912;-80
2022/04/08 00:31:33;;;;;;;2.60;1.33;;;11.40;50.10;;;;;;7343699;19;20996;-80
2022/04/08 00:34:02;;;;;;;4.47;1.20;;;11.40;50.00;;;;;;7350065;19;20763;-81
2022/04/08 00:36:32;;;;;;;4.87;1.23;;;11.40;49.80;;;;;;7360374;19;21529;-81
2022/04/08 00:39:01;;;;;;;4.27;1.00;;;11.40;49.40;;;;;;7356124;19;20410;-81
2022/04/08 00:41:33;;;;;;;2.60;1.57;;;11.30;49.80;;;;;;7356087;19;20431;-80
2022/04/08 00:44:09;;;;;;;2.47;0.90;;;11.30;49.90;;;;;;7367733;19;20401;-80
2022/04/08 00:46:44;;;;;;;3.50;1.00;;;11.30;49.90;;;;;;7365932;19;20975;-80
2022/04/08 00:49:16;;;;;;;4.73;1.20;;;11.20;50.10;;;;;;7350452;19;20408;-80
2022/04/08 00:51:46;;;;;;;1.63;1.10;;;11.20;50.20;;;;;;7341644;19;20432;-80
2022/04/08 00:54:18;;;;;;;3.33;1.50;;;11.20;50.80;;;;;;7355275;19;21222;-81
2022/04/08 00:56:48;;;;;;;3.80;0.97;;;11.20;50.70;;;;;;7343277;19;20404;-80
2022/04/08 00:59:23;;;;;;;3.47;1.10;;;11.20;50.80;;;;;;7354845;19;20428;-81
2022/04/08 01:01:52;;;;;;;3.63;1.00;;;11.30;51.00;;;;;;7337713;19;20896;-80
2022/04/08 01:04:26;;;;;;;3.20;1.37;;;11.20;51.20;;;;;;7354710;19;20410;-81
2022/04/08 01:06:56;;;;;;;5.10;1.20;;;11.30;51.40;;;;;;7351317;19;20415;-79
2022/04/08 01:09:28;;;;;;;4.00;1.73;;;11.30;51.20;;;;;;7357528;19;20416;-80
2022/04/08 01:11:58;;;;;;;3.43;1.10;;;11.30;51.30;;;;;;7348680;19;20487;-80
2022/04/08 01:14:36;;;;;;;3.13;1.13;;;11.20;51.20;;;;;;7362584;19;20412;-80
2022/04/08 01:17:05;;;;;;;2.67;1.07;;;11.20;51.60;;;;;;7356018;19;20403;-81
2022/04/08 01:19:35;;;;;;;5.63;1.60;;;11.10;51.40;;;;;;7355078;19;20404;-81
2022/04/08 01:22:07;;;;;;;5.33;1.20;;;11.00;51.60;;;;;;7360460;19;21042;-80
2022/04/08 01:24:46;;;;;;;4.20;1.10;;;11.00;51.90;;;;;;7362025;19;20431;-81
2022/04/08 01:27:23;;;;;;;2.90;1.10;;;11.00;51.90;;;;;;7361304;19;20404;-80
2022/04/08 01:29:53;;;;;;;2.93;1.00;;;11.00;51.10;;;;;;7337158;19;20444;-82
2022/04/08 01:32:22;;;;;;;4.63;1.37;;;11.00;51.10;;;;;;7345400;19;20412;-80
2022/04/08 01:34:54;;;;;;;2.70;0.90;;;11.00;51.10;;;;;;7347667;19;20433;-81
2022/04/08 01:37:29;;;;;;;11.23;1.23;;;11.00;51.30;;;;;;7351830;19;21660;-80
2022/04/08 01:39:58;;;;;;;2.60;1.00;;;11.00;50.80;;;;;;7350599;19;20496;-80
2022/04/08 01:42:32;;;;;;;2.80;1.13;;;11.00;51.00;;;;;;7355640;19;21263;-79
2022/04/08 01:45:05;;;;;;;5.77;1.10;;;11.00;51.00;;;;;;7354004;19;20428;-80
2022/04/08 01:47:37;;;;;;;4.53;0.93;;;10.90;51.00;;;;;;7361604;19;20409;-81
2022/04/08 01:50:07;;;;;;;2.13;1.00;;;10.90;51.20;;;;;;7351986;19;20401;-78
2022/04/08 01:52:39;;;;;;;2.37;1.20;;;11.00;51.30;;;;;;7353872;19;20384;-80
2022/04/08 01:55:30;;;;;;;4.43;1.30;;;11.10;51.40;;;;;;7355807;19;20444;-80
2022/04/08 01:58:02;;;;;;;4.30;0.90;;;11.00;51.60;;;;;;7391146;19;20393;-80
2022/04/08 02:00:34;;;;;;;6.57;1.60;;;10.90;51.80;;;;;;7399062;19;20459;-80
2022/04/08 02:03:03;;;;;;;5.83;1.80;;;10.90;51.80;;;;;;7368944;19;20415;-79
2022/04/08 02:05:33;;;;;;;3.57;1.17;;;10.90;51.90;;;;;;7370630;19;20412;-80
2022/04/08 02:08:03;;;;;;;7.30;1.37;;;10.90;52.00;;;;;;7380515;19;20423;-80
2022/04/08 02:10:37;;;;;;;7.13;1.40;;;10.90;52.00;;;;;;7388161;19;20415;-80
2022/04/08 02:13:09;;;;;;;3.37;1.10;;;10.90;52.10;;;;;;7357177;19;20438;-80
2022/04/08 02:15:41;;;;;;;2.63;1.20;;;10.90;52.00;;;;;;7349265;19;20400;-80
2022/04/08 02:18:14;;;;;;;3.20;1.23;;;11.00;51.90;;;;;;7361405;19;20419;-80
2022/04/08 02:20:44;;;;;;;2.23;1.10;;;10.90;51.70;;;;;;7347630;19;20412;-81
2022/04/08 02:23:14;;;;;;;5.80;1.00;;;10.80;51.50;;;;;;7372186;19;20427;-80
2022/04/08 02:25:46;;;;;;;8.20;0.90;;;10.70;51.50;;;;;;7375806;19;20410;-80
2022/04/08 02:28:18;;;;;;;3.67;0.83;;;10.70;51.70;;;;;;7375421;19;20980;-81
2022/04/08 02:30:48;;;;;;;3.93;1.20;;;10.60;51.40;;;;;;7408287;19;20431;-81
2022/04/08 02:33:20;;;;;;;1.97;1.00;;;10.50;51.40;;;;;;7391913;19;20951;-80
2022/04/08 02:35:52;;;;;;;2.40;1.00;;;10.50;51.80;;;;;;7391023;19;20396;-80
2022/04/08 02:38:24;;;;;;;2.40;1.27;;;10.50;52.00;;;;;;7389470;19;20428;-80
2022/04/08 02:40:53;;;;;;;6.40;1.37;;;10.60;51.80;;;;;;7391691;19;20450;-80
2022/04/08 02:43:25;;;;;;;4.03;1.17;;;10.60;51.90;;;;;;7379738;19;20416;-80
2022/04/08 02:45:57;;;;;;;2.93;0.70;;;10.70;51.70;;;;;;7380034;19;20395;-80
2022/04/08 02:48:28;;;;;;;5.07;1.03;;;10.70;51.80;;;;;;7381568;19;20415;-80
2022/04/08 02:51:00;;;;;;;2.30;0.90;;;10.80;51.70;;;;;;7375490;19;20930;-80
2022/04/08 02:53:29;;;;;;;2.93;1.07;;;10.80;51.60;;;;;;7368030;19;20958;-80
2022/04/08 02:55:59;;;;;;;1.13;0.90;;;10.90;51.50;;;;;;7368115;19;21522;-79
2022/04/08 02:58:35;;;;;;;4.53;1.00;;;10.90;51.40;;;;;;7372855;19;20420;-79
2022/04/08 03:01:05;;;;;;;2.40;1.17;;;11.00;51.30;;;;;;7356771;19;21141;-80
2022/04/08 03:03:37;;;;;;;2.57;1.77;;;11.00;51.50;;;;;;7346956;19;20408;-80
2022/04/08 03:06:08;;;;;;;2.17;1.23;;;11.00;51.60;;;;;;7344770;19;20431;-80
2022/04/08 03:08:38;;;;;;;3.37;1.10;;;11.10;51.70;;;;;;7349602;19;20437;-80
2022/04/08 03:11:10;;;;;;;3.30;1.17;;;11.20;52.00;;;;;;7348963;19;20423;-80
2022/04/08 03:13:42;;;;;;;7.40;1.93;;;11.20;51.30;;;;;;7355225;19;20418;-80
2022/04/08 03:16:11;;;;;;;3.30;1.10;;;11.10;51.40;;;;;;7348287;19;20860;-80
2022/04/08 03:18:41;;;;;;;5.27;1.20;;;11.10;51.60;;;;;;7358349;19;20936;-80
2022/04/08 03:21:10;;;;;;;3.33;0.87;;;11.10;51.60;;;;;;7349200;19;20891;-79
2022/04/08 03:23:43;;;;;;;5.00;1.50;;;11.10;50.90;;;;;;7350443;19;20406;-80
2022/04/08 03:26:12;;;;;;;2.70;1.40;;;11.00;52.00;;;;;;7344174;19;21810;-80
2022/04/08 03:28:46;;;;;;;4.37;1.20;;;10.90;51.40;;;;;;7362082;19;20479;-80
2022/04/08 03:31:17;;;;;;;1.93;1.00;;;10.80;51.30;;;;;;7343122;19;20464;-80
2022/04/08 03:33:47;;;;;;;3.13;1.37;;;10.80;51.40;;;;;;7341681;19;20424;-80
2022/04/08 03:36:22;;;;;;;4.50;1.07;;;10.70;51.30;;;;;;7338123;19;20399;-80
2022/04/08 03:38:51;;;;;;;5.33;1.43;;;10.70;51.40;;;;;;7341876;19;20903;-80
2022/04/08 03:41:20;;;;;;;4.00;1.23;;;10.70;51.20;;;;;;7341648;19;21217;-80
2022/04/08 03:43:55;;;;;;;3.60;1.47;;;10.70;50.40;;;;;;7349302;19;20456;-80
2022/04/08 03:46:27;;;;;;;3.17;1.30;;;10.60;50.40;;;;;;7359361;19;20478;-80
2022/04/08 03:48:58;;;;;;;5.93;1.30;;;10.60;50.50;;;;;;7348846;19;20465;-80
2022/04/08 03:51:28;;;;;;;2.60;1.10;;;10.60;50.60;;;;;;7341064;19;21564;-79
2022/04/08 03:54:00;;;;;;;6.03;1.77;;;10.60;50.50;;;;;;7340025;19;20480;-80
2022/04/08 03:56:32;;;;;;;4.40;1.20;;;10.50;50.50;;;;;;7341528;19;20412;-80
2022/04/08 03:59:04;;;;;;;3.80;1.17;;;10.60;50.70;;;;;;7347155;19;20412;-81
2022/04/08 04:01:34;;;;;;;4.47;1.30;;;10.60;50.50;;;;;;7342984;19;20511;-79
2022/04/08 04:04:08;;;;;;;1.77;1.30;;;10.60;50.30;;;;;;7340981;19;20440;-80
2022/04/08 04:06:42;;;;;;;2.00;1.00;;;10.60;50.60;;;;;;7344559;19;20412;-80
2022/04/08 04:09:17;;;;;;;3.27;0.93;;;10.60;50.20;;;;;;7339906;19;21217;-77
2022/04/08 04:11:47;;;;;;;2.23;1.00;;;10.60;49.90;;;;;;7347108;19;20423;-79
2022/04/08 04:14:24;;;;;;;2.70;1.00;;;10.70;50.10;;;;;;7364804;19;20429;-80
2022/04/08 04:16:53;;;;;;;3.70;1.57;;;10.70;49.80;;;;;;7346207;19;20417;-80
2022/04/08 04:19:25;;;;;;;3.30;1.17;;;10.60;49.60;;;;;;7340708;19;20405;-80
2022/04/08 04:21:54;;;;;;;4.97;1.00;;;10.60;49.50;;;;;;7343298;19;22239;-80
2022/04/08 04:24:24;;;;;;;4.00;1.80;;;10.70;49.70;;;;;;7336833;19;20855;-80
2022/04/08 04:26:56;;;;;;;5.77;1.50;;;10.70;49.30;;;;;;7340127;19;20412;-80
2022/04/08 04:29:30;;;;;;;7.80;1.80;;;10.70;49.40;;;;;;7352477;19;21919;-80
2022/04/08 04:32:03;;;;;;;1.50;0.73;;;10.70;49.30;;;;;;7358074;19;20420;-79
2022/04/08 04:34:33;;;;;;;1.53;0.97;;;10.60;49.30;;;;;;7361314;19;20463;-79
2022/04/08 04:37:05;;;;;;;2.93;1.40;;;10.60;49.50;;;;;;7343665;19;20416;-79
2022/04/08 04:39:35;;;;;;;3.83;1.23;;;10.70;49.60;;;;;;7339096;19;20506;-78
2022/04/08 04:42:07;;;;;;;4.53;1.20;;;10.70;49.30;;;;;;7349387;19;20444;-78
2022/04/08 04:44:39;;;;;;;4.27;2.13;;;10.60;49.50;;;;;;7361829;19;20388;-79
2022/04/08 04:47:13;;;;;;;2.37;1.33;;;10.60;49.70;;;;;;7336349;19;20510;-79
2022/04/08 04:49:44;;;;;;;3.70;1.07;;;10.70;49.80;;;;;;7360858;19;20417;-80
2022/04/08 04:52:14;;;;;;;5.50;1.50;;;10.70;50.30;;;;;;7344436;19;20462;-79
2022/04/08 04:54:44;;;;;;;4.40;1.20;;;10.70;49.70;;;;;;7336743;19;20400;-80
2022/04/08 04:57:15;;;;;;;4.50;1.43;;;10.70;49.50;;;;;;7335993;19;20417;-79
2022/04/08 04:59:47;;;;;;;2.03;1.00;;;10.70;49.80;;;;;;7337584;19;20943;-79
2022/04/08 05:02:19;;;;;;;3.13;1.33;;;10.60;50.00;;;;;;7366629;19;20480;-79
2022/04/08 05:04:52;;;;;;;3.83;1.20;;;10.60;50.30;;;;;;7373950;19;20432;-79
2022/04/08 05:07:21;;;;;;;1.57;0.80;;;10.60;50.30;;;;;;7374621;19;20782;-79
2022/04/08 05:09:51;;;;;;;6.87;1.67;;;10.70;50.60;;;;;;7371819;19;20408;-78
2022/04/08 05:12:20;;;;;;;6.07;1.20;;;10.70;50.00;;;;;;7374448;19;20411;-79
2022/04/08 05:15:13;;;;;;;5.00;2.00;;;10.80;49.80;;;;;;7376184;19;20388;-78
2022/04/08 05:17:46;;;;;;;6.17;2.00;;;10.80;50.20;;;;;;7368696;19;20395;-79
2022/04/08 05:20:15;;;;;;;8.17;1.80;;;10.90;50.10;;;;;;7354700;19;20440;-79
2022/04/08 05:22:45;;;;;;;7.87;4.03;;;10.90;50.40;;;;;;7362244;19;20474;-79
2022/04/08 05:25:14;;;;;;;4.27;2.17;;;10.90;51.00;;;;;;7348388;19;20420;-78
2022/04/08 05:27:46;;;;;;;10.67;4.00;;;11.00;50.70;;;;;;7363239;19;20499;-78
2022/04/08 05:30:19;;;;;;;4.03;1.80;;;11.00;50.50;;;;;;7352179;19;20456;-79
2022/04/08 05:32:48;;;;;;;3.60;2.13;;;11.10;50.10;;;;;;7346780;19;20404;-79
2022/04/08 05:35:21;;;;;;;3.80;1.57;;;11.10;50.10;;;;;;7380743;19;20432;-77
2022/04/08 05:37:51;;;;;;;3.90;1.73;;;11.10;50.20;;;;;;7366740;19;20416;-79
2022/04/08 05:40:22;;;;;;;4.93;1.67;;;11.20;50.20;;;;;;7349064;19;20401;-80
2022/04/08 05:42:54;;;;;;;3.70;1.30;;;11.20;50.10;;;;;;7399046;19;20396;-81
2022/04/08 05:45:28;;;;;;;3.60;1.40;;;11.20;49.90;;;;;;7407471;19;20464;-80
2022/04/08 05:48:05;;;;;;;2.60;1.20;;;11.20;50.20;;;;;;7413235;19;20426;-81
2022/04/08 05:50:35;;;;;;;4.40;1.33;;;11.20;50.00;;;;;;7410693;19;20411;-81
2022/04/08 05:53:04;;;;;;;4.03;2.00;;;11.20;50.40;;;;;;7409000;19;20412;-81
2022/04/08 05:55:34;;;;;;;4.43;1.23;;;11.20;50.40;;;;;;7411580;19;20423;-82
2022/04/08 05:58:03;;;;;;;2.97;1.30;;;11.20;50.50;;;;;;7414251;19;20400;-82
2022/04/08 06:00:37;;;;;;;3.00;1.20;;;11.20;50.60;;;;;;7392382;19;20389;-82
2022/04/08 06:03:09;;;;;;;5.13;1.40;;;11.20;50.90;;;;;;7393142;19;20442;-82
2022/04/08 06:05:39;;;;;;;5.63;1.20;;;11.20;51.30;;;;;;7398092;19;20404;-82
2022/04/08 06:08:11;;;;;;;3.60;1.33;;;11.10;51.40;;;;;;7402969;19;20448;-81
2022/04/08 06:10:44;;;;;;;2.60;1.00;;;11.20;51.90;;;;;;7405870;19;20385;-81
2022/04/08 06:13:13;;;;;;;1.97;1.10;;;11.10;52.30;;;;;;7404738;19;20400;-82
2022/04/08 06:15:48;;;;;;;4.10;1.13;;;11.00;52.50;;;;;;7403465;19;20431;-81
2022/04/08 06:18:18;;;;;;;3.90;1.33;;;11.00;53.20;;;;;;7385062;19;21008;-82
2022/04/08 06:20:52;;;;;;;4.07;1.40;;;11.00;52.60;;;;;;7383256;19;20899;-82
2022/04/08 06:23:24;;;;;;;3.83;1.10;;;11.10;54.40;;;;;;7381525;19;20442;-81
2022/04/08 06:25:53;;;;;;;4.10;1.27;;;11.00;54.40;;;;;;7381658;19;20408;-81
2022/04/08 06:28:23;;;;;;;3.97;1.70;;;10.80;54.80;;;;;;7378475;19;20372;-81
2022/04/08 06:30:59;;;;;;;2.50;0.83;;;10.60;56.80;;;;;;7376337;19;20446;-81
2022/04/08 06:33:34;;;;;;;2.50;1.07;;;10.70;56.40;;;;;;7375049;19;20501;-81
2022/04/08 06:36:07;;;;;;;1.23;1.10;;;10.80;56.90;;;;;;7376313;19;20416;-81
2022/04/08 06:38:36;;;;;;;6.53;1.40;;;10.80;56.70;;;;;;7375755;19;20400;-80
2022/04/08 06:41:08;;;;;;;4.00;1.23;;;10.80;56.80;;;;;;7378169;19;21145;-81
2022/04/08 06:43:40;;;;;;;2.60;1.30;;;10.70;57.00;;;;;;7375491;19;20403;-81
2022/04/08 06:46:14;;;;;;;5.40;1.23;;;10.60;57.70;;;;;;7377068;19;20408;-80
2022/04/08 06:48:43;;;;;;;6.73;2.23;;;10.70;58.10;;;;;;7373952;19;20964;-81
2022/04/08 06:51:13;;;;;;;3.10;1.10;;;10.90;58.60;;;;;;7375905;19;21957;-81
2022/04/08 06:53:42;;;;;;;6.07;1.50;;;10.90;58.40;;;;;;7374812;19;20614;-81
2022/04/08 06:56:18;;;;;;;2.70;1.00;;;10.80;59.10;;;;;;7375618;19;20974;-80
2022/04/08 06:58:48;;;;;;;2.13;1.33;;;10.70;60.00;;;;;;7373333;19;20491;-81
2022/04/08 07:01:20;;;;;;;2.23;1.00;;;10.70;60.30;;;;;;7376370;19;20400;-81
2022/04/08 07:03:50;;;;;;;2.90;1.40;;;10.50;59.80;;;;;;7376945;19;20399;-81
2022/04/08 07:06:19;;;;;;;5.23;1.00;;;10.50;61.20;;;;;;7373994;19;20415;-80
2022/04/08 07:08:52;;;;;;;3.50;1.40;;;10.50;61.50;;;;;;7375595;19;20372;-80
2022/04/08 07:11:21;;;;;;;3.63;1.03;;;10.40;62.50;;;;;;7376344;19;20499;-80
2022/04/08 07:13:51;;;;;;;1.10;0.90;;;10.30;63.20;;;;;;7374645;19;20408;-81
2022/04/08 07:16:41;;;;;;;2.40;1.00;;;10.30;64.80;;;;;;7372887;19;20522;-80
2022/04/08 07:19:13;;;;;;;4.83;0.87;;;10.20;63.60;;;;;;7383752;19;20768;-81
2022/04/08 07:21:45;;;;;;;1.43;0.80;;;10.20;66.90;;;;;;7379792;19;20383;-80
2022/04/08 07:24:14;;;;;;;1.37;0.90;;;10.30;65.80;;;;;;7383608;19;20499;-80
2022/04/08 07:26:48;;;;;;;3.73;1.70;;;10.40;66.10;;;;;;7383761;19;20427;-80
2022/04/08 07:29:20;;;;;;;1.17;0.93;;;10.10;67.30;;;;;;7380876;19;20418;-80
2022/04/08 07:31:55;;;;;;;6.47;1.38;;;10.10;73.10;;;;;;7374559;19;20166;-80
2022/04/08 07:34:24;;;;;;;2.77;1.47;;;10.00;73.20;;;;;;7382014;19;20999;-80
2022/04/08 07:36:54;;;;;;;3.27;0.93;;;10.10;73.00;;;;;;7379628;19;20428;-81
2022/04/08 07:39:26;;;;;;;2.57;1.10;;;10.00;70.50;;;;;;7383619;19;20435;-81
2022/04/08 07:41:58;;;;;;;1.50;0.90;;;10.00;75.70;;;;;;7383239;19;20406;-81
2022/04/08 07:44:29;;;;;;;1.70;1.05;;;9.90;71.40;;;;;;7380349;19;20462;-81
2022/04/08 07:47:01;;;;;;;1.52;0.60;;;9.90;75.40;;;;;;7378378;19;20136;-81
2022/04/08 07:49:33;;;;;;;2.33;0.80;;;9.80;72.50;;;;;;7380794;19;20138;-81
2022/04/08 07:52:03;;;;;;;1.58;1.08;;;10.00;76.20;;;;;;7383532;19;20404;-81
2022/04/08 07:54:35;;;;;;;2.17;0.80;;;10.10;71.00;;;;;;7382927;19;20628;-81
2022/04/08 07:57:05;;;;;;;1.33;1.23;;;10.20;73.00;;;;;;7379257;19;20442;-81
2022/04/08 07:59:34;;;;;;;3.53;1.10;;;10.50;71.90;;;;;;7383205;19;20408;-81
2022/04/08 08:02:06;;;;;;;4.87;0.70;;;10.70;70.20;;;;;;7379754;19;21016;-80
2022/04/08 08:04:36;;;;;;;2.43;1.10;;;10.80;69.20;;;;;;7378463;19;20409;-81
2022/04/08 08:07:06;;;;;;;1.63;0.80;;;10.90;68.60;;;;;;7382454;19;20408;-81
2022/04/08 08:09:36;;;;;;;1.73;1.20;;;10.90;68.10;;;;;;7379494;19;20400;-81
2022/04/08 08:12:11;;;;;;;7.10;1.23;;;11.00;69.40;;;;;;7379094;19;20415;-81
2022/04/08 08:14:41;;;;;;;3.40;1.60;;;11.20;69.20;;;;;;7382700;19;20560;-82
2022/04/08 08:17:15;;;;;;;1.37;1.10;;;11.40;67.50;;;;;;7379029;19;20376;-81
2022/04/08 08:19:45;;;;;;;2.07;1.33;;;11.70;68.00;;;;;;7381695;19;20368;-81
2022/04/08 08:22:17;;;;;;;3.23;1.10;;;11.80;68.40;;;;;;7378635;19;20408;-81
2022/04/08 08:24:49;;;;;;;3.73;1.63;;;11.90;67.20;;;;;;7381168;19;20381;-82
2022/04/08 08:27:19;;;;;;;2.70;0.87;;;11.90;63.80;;;;;;7377789;19;20433;-80
2022/04/08 08:30:03;;;;;;;1.20;0.80;;;11.90;66.60;;;;;;7379004;19;20447;-80
2022/04/08 08:32:38;;;;;;;2.40;0.80;;;12.10;66.90;;;;;;7377717;19;20400;-82
2022/04/08 08:35:12;;;;;;;1.47;0.73;;;12.10;65.40;;;;;;7381786;19;20407;-79
2022/04/08 08:37:42;;;;;;;1.73;1.00;;;12.10;65.70;;;;;;7380018;19;20503;-80
2022/04/08 08:40:16;;;;;;;1.40;0.70;;;12.00;64.60;;;;;;7381148;19;20417;-81
2022/04/08 08:42:48;;;;;;;2.97;0.80;;;11.80;65.00;;;;;;7381958;19;21109;-80
2022/04/08 08:45:20;;;;;;;2.40;0.70;;;11.80;63.40;;;;;;7380150;19;20412;-80
2022/04/08 08:47:53;;;;;;;2.70;0.80;;;11.50;65.00;;;;;;7379953;19;20517;-80
2022/04/08 08:50:25;;;;;;;1.30;0.67;;;11.40;67.00;;;;;;7379342;19;20416;-81
2022/04/08 08:52:54;;;;;;;1.07;0.70;;;11.00;67.50;;;;;;7380901;19;20404;-81
2022/04/08 08:55:24;;;;;;;1.00;0.60;;;10.90;69.20;;;;;;7384525;19;20416;-82
2022/04/08 08:57:54;;;;;;;1.63;1.00;;;10.90;67.00;;;;;;7414374;19;20417;-81
2022/04/08 09:00:24;;;;;;;3.33;1.23;;;11.00;69.10;;;;;;7418440;19;20412;-82
2022/04/08 09:03:00;;;;;;;1.57;0.80;;;11.10;67.60;;;;;;7417199;19;20694;-82
2022/04/08 09:05:32;;;;;;;1.90;0.80;;;11.10;68.90;;;;;;7417471;19;20416;-81
2022/04/08 09:08:03;;;;;;;1.20;0.67;;;11.20;70.10;;;;;;7416418;19;20416;-81
2022/04/08 09:10:37;;;;;;;1.83;1.07;;;11.40;69.20;;;;;;7417122;19;20416;-81
2022/04/08 09:13:10;;;;;;;1.80;0.60;;;11.40;68.50;;;;;;7421685;19;20421;-81
2022/04/08 09:15:41;;;;;;;0.90;0.63;;;11.30;69.00;;;;;;7428191;19;20418;-81
2022/04/08 09:18:31;;;;;;;3.07;0.83;;;11.30;69.30;;;;;;7428020;19;20396;-81
2022/04/08 09:21:03;;;;;;;3.30;0.70;;;11.40;70.40;;;;;;7415331;19;20395;-82
2022/04/08 09:23:33;;;;;;;1.67;0.80;;;11.50;71.10;;;;;;7409043;19;20401;-82
2022/04/08 09:26:05;;;;;;;1.50;0.60;;;11.50;70.00;;;;;;7412523;19;20425;-82
2022/04/08 09:28:40;;;;;;;1.43;0.60;;;11.60;70.40;;;;;;7409776;19;20402;-82
2022/04/08 09:31:20;;;;;;;3.30;0.90;;;11.60;68.30;;;;;;7390850;19;20465;-82
2022/04/08 09:33:56;;;;;;;0.83;0.60;;;11.70;70.10;;;;;;7384626;19;20400;-82
2022/04/08 09:36:30;;;;;;;1.13;0.80;;;11.30;71.80;;;;;;7383692;19;20400;-81
2022/04/08 09:39:10;;;;;;;0.90;0.60;;;11.20;74.80;;;;;;7380375;19;20424;-82
2022/04/08 09:41:42;;;;;;;1.37;1.07;;;11.40;72.90;;;;;;7376966;19;20421;-82
2022/04/08 09:44:13;;;;;;;2.07;0.63;;;11.50;72.10;;;;;;7381310;19;20416;-81
2022/04/08 09:46:43;;;;;;;0.63;0.50;;;11.30;68.10;;;;;;7378874;19;20415;-82
2022/04/08 09:49:15;;;;;;;1.67;0.80;;;11.30;70.40;;;;;;7379840;19;20411;-81
2022/04/08 09:51:45;;;;;;;1.10;0.60;;;11.30;71.40;;;;;;7375845;19;20863;-82
2022/04/08 09:54:19;;;;;;;4.40;1.70;;;11.30;69.70;;;;;;7377781;19;20955;-82
2022/04/08 09:56:52;;;;;;;3.30;1.10;;;11.40;71.00;;;;;;7374913;19;20509;-82
2022/04/08 09:59:25;;;;;;;1.53;0.90;;;11.10;69.50;;;;;;7378585;19;20396;-82
2022/04/08 10:02:01;;;;;;;1.50;0.63;;;11.20;70.00;;;;;;7376211;19;20423;-82
2022/04/08 10:04:38;;;;;;;2.40;1.30;;;11.30;69.00;;;;;;7377492;19;20427;-82
2022/04/08 10:07:11;;;;;;;0.70;0.50;;;11.40;66.70;;;;;;7379385;19;20423;-82
2022/04/08 10:09:50;;;;;;;1.47;0.50;;;11.30;64.70;;;;;;7379938;19;20412;-82
2022/04/08 10:12:28;;;;;;;1.37;1.27;;;11.20;65.80;;;;;;7376241;19;20500;-82
2022/04/08 10:15:12;;;;;;;1.30;0.80;;;11.30;67.90;;;;;;7375689;19;20400;-82
2022/04/08 10:17:41;;;;;;;0.80;0.70;;;11.50;69.40;;;;;;7376116;19;20408;-82
2022/04/08 10:20:24;;;;;;;2.30;1.90;;;11.50;67.30;;;;;;7376220;19;20419;-82
2022/04/08 10:23:06;;;;;;;0.80;0.80;;;11.50;68.60;;;;;;7378191;19;20442;-82
2022/04/08 10:25:40;;;;;;;0.70;0.70;;;11.50;66.60;;;;;;7376231;19;20433;-82
2022/04/08 10:28:11;;;;;;;1.00;0.50;;;11.60;67.60;;;;;;7379816;19;20423;-81
2022/04/08 10:30:47;;;;;;;0.70;0.60;;;11.60;65.50;;;;;;7379150;19;20502;-81
2022/04/08 10:33:27;;;;;;;0.90;0.73;;;11.70;65.60;;;;;;7377846;19;20412;-81
2022/04/08 10:36:04;;;;;;;1.13;0.50;;;11.70;67.30;;;;;;7379164;19;20423;-81
2022/04/08 10:38:38;;;;;;;1.07;0.67;;;11.60;68.00;;;;;;7377154;19;20487;-81
2022/04/08 10:41:10;;;;;;;7.10;1.60;;;11.60;67.30;;;;;;7370114;19;20423;-81
2022/04/08 10:43:51;;;;;;;1.03;0.77;;;11.50;68.00;;;;;;7375313;19;20416;-81
2022/04/08 10:46:32;;;;;;;0.73;0.60;;;11.40;67.70;;;;;;7378026;19;20438;-81
2022/04/08 10:49:04;;;;;;;1.30;0.60;;;11.30;69.20;;;;;;7375580;19;20522;-81
2022/04/08 10:51:46;;;;;;;1.50;0.60;;;11.50;69.40;;;;;;7376404;19;20462;-79
2022/04/08 10:54:16;;;;;;;1.80;0.90;;;11.70;67.10;;;;;;7383602;19;20425;-81
2022/04/08 10:57:00;;;;;;;0.90;0.60;;;11.80;66.00;;;;;;7385402;19;20451;-81
2022/04/08 10:59:30;;;;;;;0.63;0.60;;;11.90;66.50;;;;;;7383600;19;21347;-81
2022/04/08 11:02:06;;;;;;;1.07;0.50;;;11.90;68.90;;;;;;7383860;19;20517;-81
2022/04/08 11:04:35;;;;;;;1.83;1.70;;;11.90;66.90;;;;;;7381945;19;21086;-80
2022/04/08 11:07:11;;;;;;;3.67;2.60;;;11.70;67.50;;;;;;7383387;19;20955;-81
2022/04/08 11:09:45;;;;;;;3.40;0.80;;;11.80;65.60;;;;;;7380346;19;20371;-81
2022/04/08 11:12:16;;;;;;;2.10;1.23;;;11.70;67.50;;;;;;7382126;19;20964;-80
2022/04/08 11:14:57;;;;;;;1.60;1.13;;;11.50;67.50;;;;;;7382480;19;20476;-80
2022/04/08 11:17:36;;;;;;;2.40;1.03;;;11.40;69.10;;;;;;7381217;19;20395;-80
2022/04/08 11:20:12;;;;;;;1.33;0.60;;;11.20;70.90;;;;;;7381377;19;20946;-80
2022/04/08 11:22:46;;;;;;;1.93;0.93;;;10.90;71.10;;;;;;7379907;19;20428;-79
2022/04/08 11:25:22;;;;;;;1.63;0.90;;;10.90;71.70;;;;;;7379082;19;20439;-80
2022/04/08 11:28:04;;;;;;;2.50;1.20;;;10.90;72.90;;;;;;7381059;19;20400;-80
2022/04/08 11:30:38;;;;;;;2.27;0.90;;;10.90;73.00;;;;;;7379868;19;20566;-81
2022/04/08 11:33:17;;;;;;;1.10;0.70;;;10.80;72.80;;;;;;7378928;19;20412;-82
2022/04/08 11:35:48;;;;;;;1.13;1.03;;;10.90;73.00;;;;;;7382811;19;20432;-82
2022/04/08 11:38:22;;;;;;;1.50;0.73;;;11.00;70.80;;;;;;7379214;19;20420;-82
2022/04/08 11:40:55;;;;;;;0.90;0.87;;;11.00;71.60;;;;;;7383580;19;20936;-82
2022/04/08 11:43:24;;;;;;;2.33;0.67;;;11.00;71.20;;;;;;7379493;19;20404;-81
2022/04/08 11:45:56;;;;;;;1.30;1.10;;;11.00;73.00;;;;;;7381923;19;21011;-82
2022/04/08 11:48:28;;;;;;;2.03;1.00;;;11.10;71.60;;;;;;7380536;19;20402;-82
2022/04/08 11:51:07;;;;;;;2.10;1.37;;;11.20;72.60;;;;;;7383317;19;20993;-81
2022/04/08 11:53:48;;;;;;;1.17;0.90;;;11.10;72.70;;;;;;7381376;19;21018;-82
2022/04/08 11:56:25;;;;;;;4.03;1.20;;;11.00;73.20;;;;;;7381959;19;20404;-81
2022/04/08 11:58:59;;;;;;;1.27;1.00;;;11.00;74.20;;;;;;7379971;19;20408;-81
2022/04/08 12:01:33;;;;;;;1.43;0.80;;;10.90;73.40;;;;;;7382594;19;20495;-82
2022/04/08 12:04:06;;;;;;;1.90;1.43;;;11.00;75.70;;;;;;7382438;19;20716;-81
2022/04/08 12:06:41;;;;;;;1.50;1.23;;;11.20;73.80;;;;;;7380929;19;20409;-82
2022/04/08 12:09:20;;;;;;;2.53;0.80;;;11.40;73.00;;;;;;7387514;19;20446;-82
2022/04/08 12:11:56;;;;;;;5.03;1.70;;;11.30;71.50;;;;;;7416560;19;20415;-82
2022/04/08 12:14:55;;;;;;;1.73;1.27;;;11.10;73.30;;;;;;7420394;19;20400;-82
2022/04/08 12:17:25;;;;;;;2.43;1.17;;;11.10;74.60;;;;;;7414912;19;20407;-82
2022/04/08 12:19:59;;;;;;;1.43;1.33;;;11.00;75.50;;;;;;7420898;19;20433;-82
2022/04/08 12:22:35;;;;;;;1.50;1.40;;;11.00;76.30;;;;;;7419467;19;20406;-82
2022/04/08 12:25:08;;;;;;;2.10;1.27;;;11.00;76.80;;;;;;7422226;19;20441;-82
2022/04/08 12:27:38;;;;;;;3.60;1.23;;;11.00;75.30;;;;;;7425166;19;20437;-80
2022/04/08 12:30:13;;;;;;;1.63;1.27;;;11.00;76.60;;;;;;7419366;19;20468;-82
2022/04/08 12:32:45;;;;;;;2.43;1.40;;;10.90;74.90;;;;;;7407645;19;20405;-82
2022/04/08 12:35:15;;;;;;;1.50;1.23;;;11.00;76.70;;;;;;7410886;19;20432;-83
2022/04/08 12:37:44;;;;;;;2.57;1.27;;;11.00;75.60;;;;;;7410464;19;20409;-82
2022/04/08 12:40:17;;;;;;;1.83;1.37;;;10.70;75.50;;;;;;7403173;19;20412;-80
2022/04/08 12:42:48;;;;;;;1.23;0.93;;;10.70;75.40;;;;;;7383022;19;20394;-80
2022/04/08 12:45:18;;;;;;;1.43;1.17;;;10.30;77.40;;;;;;7384304;19;20384;-80
2022/04/08 12:47:50;;;;;;;1.13;1.03;;;10.30;79.30;;;;;;7381317;19;20501;-80
2022/04/08 12:50:20;;;;;;;1.83;1.13;;;10.40;78.90;;;;;;7382329;19;21200;-80
2022/04/08 12:52:49;;;;;;;5.50;2.33;;;10.60;78.80;;;;;;7378185;19;20411;-80
2022/04/08 12:55:21;;;;;;;1.90;1.10;;;10.70;76.80;;;;;;7380444;19;20409;-80
2022/04/08 12:57:51;;;;;;;1.33;1.00;;;10.60;76.30;;;;;;7378831;19;20413;-80
2022/04/08 13:00:23;;;;;;;1.17;1.07;;;10.50;74.40;;;;;;7381310;19;20404;-80
2022/04/08 13:02:56;;;;;;;1.30;0.97;;;10.30;75.50;;;;;;7382505;19;21155;-80
2022/04/08 13:05:28;;;;;;;1.30;1.17;;;10.30;76.00;;;;;;7381019;19;20372;-80
2022/04/08 13:07:58;;;;;;;1.67;1.37;;;10.10;78.90;;;;;;7380040;19;20499;-80
2022/04/08 13:10:33;;;;;;;2.10;1.73;;;10.20;78.30;;;;;;7380873;19;21349;-81
2022/04/08 13:13:05;;;;;;;2.67;1.83;;;10.00;77.60;;;;;;7378424;19;20997;-80
2022/04/08 13:15:36;;;;;;;2.50;1.87;;;10.00;78.70;;;;;;7379183;19;20368;-80